SondeTracker

Meteorological Radiosondes Database

Operations

Sounding was ended - last measurement: 2023-03-29 13:17:07z

MAP
About Radiosonde

Number: D22055258 ([BC]22055258)

Launch Site: Greensboro [NC] (US)

Type: DFM

AUX: NO

Frequency: 403.401 MHz

Max Speed: 215 km/h at 12811 m

Average Speed: 120.88 km/h

Max Altitude: 31582 m

Average Ascent Speed: 5.03 m/s

Average Descent Speed: 18.80 m/s

Status: UNKNOWN

Status Changes
Launch Site Type AUX Frequency Status Finder Landing Point Description Changes made by
APRS Statistics

Received Frames: 505

First Frame [UTC]: 2023-03-29 11:09:57z

Last Frame [UTC]: 2023-03-29 13:17:07z

Receivers: W4DEX-14, W4TBD-12

Flight Time: 02:07:10 h

Distance From First Measurement: 213.19 km

Nearest City: Tarboro [NC] (US) [16.15 km]

Nearest Hunter: [0.00 km]

Ground Altitude: 26 m

Distance from QTH: 0.00 km

APRS Data
Receiver Number Date/Time [UTC] φ λ Course [°] Speed [km/h] Altitude [m] Description
W4DEX-14D220552582023-03-29 13:17:0735.7675-77.6154116723405Clb=-9.6m/s Type=DFM17 ser=[BC]22055258 Details on http://radiosondy.info
W4DEX-14D220552582023-03-29 13:16:5635.7686-77.6184115743551Clb=-10.0m/s Type=DFM17 ser=[BC]22055258 Details on http://radiosondy.info
W4DEX-14D220552582023-03-29 13:16:4535.7699-77.6215120803695Clb=-10.0m/s Type=DFM17 ser=[BC]22055258 Details on http://radiosondy.info
W4DEX-14D220552582023-03-29 13:16:3435.7714-77.6246121783835Clb=-9.1m/s Type=DFM17 ser=[BC]22055258 Details on http://radiosondy.info
W4DEX-14D220552582023-03-29 13:16:2135.773-77.6277122833968Clb=-9.6m/s Type=DFM17 ser=[BC]22055258 Details on http://radiosondy.info
W4DEX-14D220552582023-03-29 13:16:0835.7746-77.631122894108Clb=-9.6m/s Type=DFM17 ser=[BC]22055258 Details on http://radiosondy.info
W4DEX-14D220552582023-03-29 13:15:5535.7763-77.6346120944244Clb=-9.0m/s Type=DFM17 ser=[BC]22055258 Details on http://radiosondy.info
W4DEX-14D220552582023-03-29 13:15:4135.7781-77.6384120984382Clb=-9.4m/s Type=DFM17 ser=[BC]22055258 Details on http://radiosondy.info
W4DEX-14D220552582023-03-29 13:15:2635.7798-77.64241171004532Clb=-10.4m/s Type=DFM17 ser=[BC]22055258 Details on http://radiosondy.info
W4DEX-14D220552582023-03-29 13:15:1135.7814-77.64661151024676Clb=-10.0m/s Type=DFM17 ser=[BC]22055258 Details on http://radiosondy.info
W4DEX-14D220552582023-03-29 13:14:5535.783-77.6508117984818Clb=-9.6m/s Type=DFM17 ser=[BC]22055258 Details on http://radiosondy.info
W4DEX-14D220552582023-03-29 13:14:4235.7847-77.6547118934962Clb=-9.0m/s Type=DFM17 ser=[BC]22055258 Details on http://radiosondy.info
W4DEX-14D220552582023-03-29 13:14:2835.7864-77.6584117935118Clb=-10.0m/s Type=DFM17 ser=[BC]22055258 Details on http://radiosondy.info
W4TBD-12D220552582023-03-29 13:14:2135.7874-77.661111935209Clb=-9.6m/s t=-16.8C h=-1.0% p=-1.0hPa 403.401 MHz Type=DFM17 ser=22055258 Radiosonde
W4DEX-14D220552582023-03-29 13:14:1435.7878-77.6623112945270Clb=-10.0m/s Type=DFM17 ser=[BC]22055258 Details on http://radiosondy.info
W4DEX-14D220552582023-03-29 13:13:5735.7891-77.6664112985417Clb=-10.0m/s Type=DFM17 ser=[BC]22055258 Details on http://radiosondy.info
W4TBD-12D220552582023-03-29 13:13:4935.7899-77.6692108985512Clb=-11.7m/s t=-19.5C h=-1.0% p=-1.0hPa 403.401 MHz Type=DFM17 ser=22055258 Radiosonde
W4DEX-14D220552582023-03-29 13:13:4235.7903-77.67071131045579Clb=-11.1m/s Type=DFM17 ser=[BC]22055258 Details on http://radiosondy.info
W4DEX-14D220552582023-03-29 13:13:2735.7916-77.67511081095746Clb=-11.3m/s Type=DFM17 ser=[BC]22055258 Details on http://radiosondy.info
W4TBD-12D220552582023-03-29 13:13:1635.7925-77.6791061095870Clb=-11.5m/s t=-22.4C h=-1.0% p=-1.0hPa 403.401 MHz Type=DFM17 ser=22055258 Radiosonde
W4DEX-14D220552582023-03-29 13:13:1035.7928-77.681071135916Clb=-11.5m/s Type=DFM17 ser=[BC]22055258 Details on http://radiosondy.info
W4DEX-14D220552582023-03-29 13:12:5435.7941-77.6851101116086Clb=-11.7m/s Type=DFM17 ser=[BC]22055258 Details on http://radiosondy.info
W4TBD-12D220552582023-03-29 13:12:4235.7953-77.68911081076224Clb=-10.6m/s t=-25.0C h=-1.0% p=-1.0hPa 403.401 MHz Type=DFM17 ser=22055258 Radiosonde
W4DEX-14D220552582023-03-29 13:12:3935.7955-77.68981071156257Clb=-11.0m/s Type=DFM17 ser=[BC]22055258 Details on http://radiosondy.info
W4DEX-14D220552582023-03-29 13:12:2335.7966-77.69491051306426Clb=-10.8m/s Type=DFM17 ser=[BC]22055258 Details on http://radiosondy.info
W4TBD-12D220552582023-03-29 13:12:0935.7978-77.70031051356572Clb=-10.7m/s t=-26.8C h=-1.0% p=-1.0hPa 403.401 MHz Type=DFM17 ser=22055258 Radiosonde
W4DEX-14D220552582023-03-29 13:12:0635.7979-77.70071051376594Clb=-10.2m/s Type=DFM17 ser=[BC]22055258 Details on http://radiosondy.info
W4DEX-14D220552582023-03-29 13:12:0035.7992-77.70681041356758Clb=-11.3m/s Type=DFM17 ser=[BC]22055258 Details on http://radiosondy.info
W4TBD-12D220552582023-03-29 13:11:5835.8005-77.71281041316912Clb=-11.0m/s t=-29.3C h=-1.0% p=-1.0hPa 403.401 MHz Type=DFM17 ser=22055258 Radiosonde
W4DEX-14D220552582023-03-29 13:11:5735.8017-77.71881041317088Clb=-11.0m/s Type=DFM17 ser=[BC]22055258 Details on http://radiosondy.info
W4DEX-14D220552582023-03-29 13:11:5635.8029-77.72461021307255Clb=-11.6m/s Type=DFM17 ser=[BC]22055258 Details on http://radiosondy.info
W4DEX-14D220552582023-03-29 13:11:5535.8039-77.73041031267420Clb=-11.0m/s Type=DFM17 ser=[BC]22055258 Details on http://radiosondy.info
W4DEX-14D220552582023-03-29 13:11:5335.8048-77.73611021307584Clb=-10.6m/s Type=DFM17 ser=[BC]22055258 Details on http://radiosondy.info
W4DEX-14D220552582023-03-29 13:11:5235.8057-77.7421001337750Clb=-11.2m/s Type=DFM17 ser=[BC]22055258 Details on http://radiosondy.info
W4TBD-12D220552582023-03-29 13:11:5135.8065-77.7493951357938Clb=-10.8m/s t=-37.5C h=-1.0% p=-1.0hPa 403.401 MHz Type=DFM17 ser=22055258 Radiosonde
W4TBD-12D220552582023-03-29 13:11:4935.8079-77.7631991548287Clb=-11.1m/s t=-39.8C h=-1.0% p=-1.0hPa 403.401 MHz Type=DFM17 ser=22055258 Radiosonde
W4TBD-12D220552582023-03-29 13:11:4835.8101-77.77761001578637Clb=-10.6m/s t=-42.0C h=-1.0% p=-1.0hPa 403.401 MHz Type=DFM17 ser=22055258 Radiosonde
W4DEX-14D220552582023-03-29 13:11:4735.8118-77.78951011618927Clb=-11.4m/s Type=DFM17 ser=[BC]22055258 Details on http://radiosondy.info
W4DEX-14D220552582023-03-29 13:11:4635.8128-77.79681011679099Clb=-11.8m/s Type=DFM17 ser=[BC]22055258 Details on http://radiosondy.info
W4DEX-14D220552582023-03-29 13:11:4135.814-77.80431021679278Clb=-12.0m/s Type=DFM17 ser=[BC]22055258 Details on http://radiosondy.info
W4TBD-12D220552582023-03-29 13:11:3835.8145-77.80781021679346Clb=-10.8m/s t=-47.5C h=-1.0% p=-1.0hPa 403.401 MHz Type=DFM17 ser=22055258 Radiosonde
W4DEX-14D220552582023-03-29 13:11:3135.8152-77.81191021709445Clb=-11.4m/s Type=DFM17 ser=[BC]22055258 Details on http://radiosondy.info
W4DEX-14D220552582023-03-29 13:11:1735.8164-77.81951001699611Clb=-10.8m/s Type=DFM17 ser=[BC]22055258 Details on http://radiosondy.info
W4TBD-12D220552582023-03-29 13:11:1335.817-77.8236991659690Clb=-10.9m/s t=-49.7C h=-1.0% p=-1.0hPa 403.401 MHz Type=DFM17 ser=22055258 Radiosonde
W4DEX-14D220552582023-03-29 13:11:0835.8173-77.8272981709778Clb=-10.3m/s Type=DFM17 ser=[BC]22055258 Details on http://radiosondy.info
W4DEX-14D220552582023-03-29 13:11:0035.8181-77.835971729948Clb=-11.0m/s Type=DFM17 ser=[BC]22055258 Details on http://radiosondy.info
W4TBD-12D220552582023-03-29 13:10:5635.8185-77.84039517210049Clb=-11.3m/s t=-51.6C h=-1.0% p=-1.0hPa 403.401 MHz Type=DFM17 ser=22055258 Radiosonde
W4DEX-14D220552582023-03-29 13:10:5235.8187-77.84299518110118Clb=-12.6m/s Type=DFM17 ser=[BC]22055258 Details on http://radiosondy.info
W4DEX-14D220552582023-03-29 13:10:4935.8195-77.85129918710295Clb=-10.9m/s Type=DFM17 ser=[BC]22055258 Details on http://radiosondy.info
W4TBD-12D220552582023-03-29 13:10:4035.8202-77.85699918910400Clb=-11.2m/s t=-53.4C h=-1.0% p=-1.0hPa 403.401 MHz Type=DFM17 ser=22055258 Radiosonde
W4DEX-14D220552582023-03-29 13:10:3335.8206-77.859810018710472Clb=-12.0m/s Type=DFM17 ser=[BC]22055258 Details on http://radiosondy.info
W4DEX-14D220552582023-03-29 13:10:1235.8218-77.868310018110642Clb=-11.8m/s Type=DFM17 ser=[BC]22055258 Details on http://radiosondy.info
W4TBD-12D220552582023-03-29 13:09:5835.8226-77.87499718110769Clb=-11.5m/s t=-54.7C h=-1.0% p=-1.0hPa 403.401 MHz Type=DFM17 ser=22055258 Radiosonde
W4DEX-14D220552582023-03-29 13:09:5335.8228-77.876610018910814Clb=-11.4m/s Type=DFM17 ser=[BC]22055258 Details on http://radiosondy.info
W4DEX-14D220552582023-03-29 13:09:3335.8238-77.88529818510985Clb=-12.1m/s Type=DFM17 ser=[BC]22055258 Details on http://radiosondy.info
W4TBD-12D220552582023-03-29 13:09:2235.8245-77.89199718311119Clb=-11.7m/s t=-55.7C h=-1.0% p=-1.0hPa 403.401 MHz Type=DFM17 ser=22055258 Radiosonde
W4DEX-14D220552582023-03-29 13:09:1835.8247-77.89369718911168Clb=-12.0m/s Type=DFM17 ser=[BC]22055258 Details on http://radiosondy.info
W4DEX-14D220552582023-03-29 13:08:5735.8253-77.90239519411341Clb=-11.2m/s Type=DFM17 ser=[BC]22055258 Details on http://radiosondy.info
W4TBD-12D220552582023-03-29 13:08:4135.8261-77.91019918911483Clb=-12.0m/s t=-56.2C h=-1.0% p=-1.0hPa 403.401 MHz Type=DFM17 ser=22055258 Radiosonde
W4DEX-14D220552582023-03-29 13:08:3835.8263-77.911210018311521Clb=-13.0m/s Type=DFM17 ser=[BC]22055258 Details on http://radiosondy.info
W4DEX-14D220552582023-03-29 13:08:1835.8271-77.91969418011698Clb=-10.1m/s Type=DFM17 ser=[BC]22055258 Details on http://radiosondy.info
W4TBD-12D220552582023-03-29 13:08:0235.8273-77.92789318311861Clb=-12.8m/s t=-56.3C h=-1.0% p=-1.0hPa 403.401 MHz Type=DFM17 ser=22055258 Radiosonde
W4DEX-14D220552582023-03-29 13:08:0035.8273-77.92789418511873Clb=-12.4m/s Type=DFM17 ser=[BC]22055258 Details on http://radiosondy.info
W4DEX-14D220552582023-03-29 13:07:3935.8278-77.93639318512062Clb=-12.2m/s Type=DFM17 ser=[BC]22055258 Details on http://radiosondy.info
W4TBD-12D220552582023-03-29 13:07:2135.8279-77.94548818912246Clb=-12.8m/s t=-56.4C h=-1.0% p=-1.0hPa 403.401 MHz Type=DFM17 ser=22055258 Radiosonde
W4DEX-14D220552582023-03-29 13:07:2035.8279-77.94488919112246Clb=-12.7m/s Type=DFM17 ser=[BC]22055258 Details on http://radiosondy.info
W4DEX-14D220552582023-03-29 13:07:0135.8278-77.95368820212444Clb=-13.3m/s Type=DFM17 ser=[BC]22055258 Details on http://radiosondy.info
W4DEX-14D220552582023-03-29 13:06:4235.8272-77.96298621312626Clb=-11.8m/s Type=DFM17 ser=[BC]22055258 Details on http://radiosondy.info
W4DEX-14D220552582023-03-29 13:06:2535.8267-77.97278721512811Clb=-12.3m/s Type=DFM17 ser=[BC]22055258 Details on http://radiosondy.info
W4DEX-14D220552582023-03-29 13:06:0535.8264-77.98269019813002Clb=-13.1m/s Type=DFM17 ser=[BC]22055258 Details on http://radiosondy.info
W4TBD-12D220552582023-03-29 13:06:0435.8264-77.98458920213028Clb=-12.7m/s t=-57.0C h=-1.0% p=-1.0hPa 403.401 MHz Type=DFM17 ser=22055258 Radiosonde
W4DEX-14D220552582023-03-29 13:05:4335.8265-77.99179219113197Clb=-11.6m/s Type=DFM17 ser=[BC]22055258 Details on http://radiosondy.info
W4DEX-14D220552582023-03-29 13:05:2035.8266-78.00059318513374Clb=-12.9m/s Type=DFM17 ser=[BC]22055258 Details on http://radiosondy.info
W4TBD-12D220552582023-03-29 13:05:1735.8266-78.00339118313429Clb=-13.9m/s t=-56.1C h=-1.0% p=-1.0hPa 403.401 MHz Type=DFM17 ser=22055258 Radiosonde
W4DEX-14D220552582023-03-29 13:04:5435.827-78.00899717813573Clb=-14.1m/s Type=DFM17 ser=[BC]22055258 Details on http://radiosondy.info
W4DEX-14D220552582023-03-29 13:04:3235.8279-78.0179517013770Clb=-13.0m/s Type=DFM17 ser=[BC]22055258 Details on http://radiosondy.info
W4TBD-12D220552582023-03-29 13:04:2835.828-78.01969316913821Clb=-13.2m/s t=-55.5C h=-1.0% p=-1.0hPa 403.401 MHz Type=DFM17 ser=22055258 Radiosonde
W4DEX-14D220552582023-03-29 13:04:1235.8281-78.02489018113976Clb=-14.4m/s Type=DFM17 ser=[BC]22055258 Details on http://radiosondy.info
W4DEX-14D220552582023-03-29 13:03:5335.8278-78.03328818714174Clb=-13.9m/s Type=DFM17 ser=[BC]22055258 Details on http://radiosondy.info
W4TBD-12D220552582023-03-29 13:03:4835.8277-78.03668818514241Clb=-13.3m/s t=-58.0C h=-1.0% p=-1.0hPa 403.401 MHz Type=DFM17 ser=22055258 Radiosonde
W4DEX-14D220552582023-03-29 13:03:3235.8276-78.04189118914370Clb=-14.1m/s Type=DFM17 ser=[BC]22055258 Details on http://radiosondy.info
W4DEX-14D220552582023-03-29 13:03:0535.8275-78.05058918514577Clb=-14.2m/s Type=DFM17 ser=[BC]22055258 Details on http://radiosondy.info
W4TBD-12D220552582023-03-29 13:02:5835.8275-78.05458918314665Clb=-14.4m/s t=-58.3C h=-1.0% p=-1.0hPa 403.401 MHz Type=DFM17 ser=22055258 Radiosonde
W4DEX-14D220552582023-03-29 13:02:4335.8274-78.0598918514793Clb=-13.7m/s Type=DFM17 ser=[BC]22055258 Details on http://radiosondy.info
W4DEX-14D220552582023-03-29 13:02:2135.8274-78.06759118715009Clb=-14.7m/s Type=DFM17 ser=[BC]22055258 Details on http://radiosondy.info
W4TBD-12D220552582023-03-29 13:02:1135.8274-78.07218918515114Clb=-14.1m/s t=-58.1C h=-1.0% p=-1.0hPa 403.401 MHz Type=DFM17 ser=22055258 Radiosonde
W4DEX-14D220552582023-03-29 13:01:5735.8273-78.07618818515235Clb=-15.0m/s Type=DFM17 ser=[BC]22055258 Details on http://radiosondy.info
W4DEX-14D220552582023-03-29 13:01:3835.8272-78.08468918515468Clb=-14.9m/s Type=DFM17 ser=[BC]22055258 Details on http://radiosondy.info
W4TBD-12D220552582023-03-29 13:01:2835.8272-78.09039018515602Clb=-14.9m/s t=-57.1C h=-1.0% p=-1.0hPa 403.401 MHz Type=DFM17 ser=22055258 Radiosonde
W4DEX-14D220552582023-03-29 13:01:1735.8272-78.09329018015694Clb=-17.0m/s Type=DFM17 ser=[BC]22055258 Details on http://radiosondy.info
W4DEX-14D220552582023-03-29 13:00:5635.827-78.10148918115925Clb=-14.2m/s Type=DFM17 ser=[BC]22055258 Details on http://radiosondy.info
W4TBD-12D220552582023-03-29 13:00:3935.8267-78.10698518516070Clb=-16.2m/s t=-58.3C h=-1.0% p=-1.0hPa 403.401 MHz Type=DFM17 ser=22055258 Radiosonde
W4DEX-14D220552582023-03-29 13:00:2735.8265-78.10988719316167Clb=-15.6m/s Type=DFM17 ser=[BC]22055258 Details on http://radiosondy.info
W4DEX-14D220552582023-03-29 12:59:5435.8265-78.11879319416408Clb=-15.6m/s Type=DFM17 ser=[BC]22055258 Details on http://radiosondy.info
W4TBD-12D220552582023-03-29 12:59:3935.8268-78.12539519316566Clb=-15.6m/s t=-60.3C h=-1.0% p=-1.0hPa 403.401 MHz Type=DFM17 ser=22055258 Radiosonde
W4DEX-14D220552582023-03-29 12:59:3035.827-78.12769717416643Clb=-15.0m/s Type=DFM17 ser=[BC]22055258 Details on http://radiosondy.info
W4DEX-14D220552582023-03-29 12:59:0535.8274-78.13569215916876Clb=-16.9m/s Type=DFM17 ser=[BC]22055258 Details on http://radiosondy.info
W4TBD-12D220552582023-03-29 12:58:4835.8275-78.14149215917059Clb=-16.2m/s t=-59.8C h=-1.0% p=-1.0hPa 403.401 MHz Type=DFM17 ser=22055258 Radiosonde
W4DEX-14D220552582023-03-29 12:58:3935.8275-78.14299615717124Clb=-15.4m/s Type=DFM17 ser=[BC]22055258 Details on http://radiosondy.info
W4DEX-14D220552582023-03-29 12:58:1335.8286-78.1510513717374Clb=-17.2m/s Type=DFM17 ser=[BC]22055258 Details on http://radiosondy.info
W4TBD-12D220552582023-03-29 12:57:5335.8295-78.15549613017572Clb=-15.5m/s t=-59.8C h=-1.0% p=-1.0hPa 403.401 MHz Type=DFM17 ser=22055258 Radiosonde
W4DEX-14D220552582023-03-29 12:57:4635.8295-78.15629413317618Clb=-15.0m/s Type=DFM17 ser=[BC]22055258 Details on http://radiosondy.info
W4DEX-14D220552582023-03-29 12:57:0835.8296-78.16239013017868Clb=-16.2m/s Type=DFM17 ser=[BC]22055258 Details on http://radiosondy.info
W4TBD-12D220552582023-03-29 12:56:4935.8298-78.16829312618103Clb=-17.5m/s t=-62.1C h=-1.0% p=-1.0hPa 403.401 MHz Type=DFM17 ser=22055258 Radiosonde
W4DEX-14D220552582023-03-29 12:56:4235.8298-78.16829412418121Clb=-16.8m/s Type=DFM17 ser=[BC]22055258 Details on http://radiosondy.info
W4DEX-14D220552582023-03-29 12:56:1935.83-78.17399412018381Clb=-16.2m/s Type=DFM17 ser=[BC]22055258 Details on http://radiosondy.info
W4TBD-12D220552582023-03-29 12:56:0035.8303-78.17949310918626Clb=-16.5m/s t=-62.8C h=-1.0% p=-1.0hPa 403.401 MHz Type=DFM17 ser=22055258 Radiosonde
W4DEX-14D220552582023-03-29 12:55:5935.8303-78.17949310618644Clb=-19.1m/s Type=DFM17 ser=[BC]22055258 Details on http://radiosondy.info
W4DEX-14D220552582023-03-29 12:55:4635.8303-78.18428410718920Clb=-17.3m/s Type=DFM17 ser=[BC]22055258 Details on http://radiosondy.info
W4TBD-12D220552582023-03-29 12:55:2935.83-78.18988611719205Clb=-16.8m/s t=-62.6C h=-1.0% p=-1.0hPa 403.401 MHz Type=DFM17 ser=22055258 Radiosonde
W4DEX-14D220552582023-03-29 12:55:1735.8304-78.194310410619469Clb=-21.4m/s Type=DFM17 ser=[BC]22055258 Details on http://radiosondy.info
W4DEX-14D220552582023-03-29 12:54:5835.8316-78.19891159319766Clb=-18.7m/s Type=DFM17 ser=[BC]22055258 Details on http://radiosondy.info
W4TBD-12D220552582023-03-29 12:54:5735.8318-78.19941169819784Clb=-17.5m/s t=-61.1C h=-1.0% p=-1.0hPa 403.401 MHz Type=DFM17 ser=22055258 Radiosonde
W4DEX-14D220552582023-03-29 12:54:4335.833-78.20281087020055Clb=-21.2m/s Type=DFM17 ser=[BC]22055258 Details on http://radiosondy.info
W4DEX-14D220552582023-03-29 12:54:4135.8336-78.2058864620359Clb=-22.6m/s Type=DFM17 ser=[BC]22055258 Details on http://radiosondy.info
W4TBD-12D220552582023-03-29 12:54:4035.8335-78.2065804420443Clb=-19.7m/s t=-59.9C h=-1.0% p=-1.0hPa 403.401 MHz Type=DFM17 ser=22055258 Radiosonde
W4DEX-14D220552582023-03-29 12:54:3535.8332-78.2079875020656Clb=-20.4m/s Type=DFM17 ser=[BC]22055258 Details on http://radiosondy.info
W4DEX-14D220552582023-03-29 12:54:2735.8336-78.21011142820960Clb=-20.2m/s Type=DFM17 ser=[BC]22055258 Details on http://radiosondy.info
W4TBD-12D220552582023-03-29 12:54:2635.8338-78.21061052821046Clb=-22.7m/s t=-58.2C h=-1.0% p=-1.0hPa 403.401 MHz Type=DFM17 ser=22055258 Radiosonde
W4DEX-14D220552582023-03-29 12:54:2235.8339-78.2113933921273Clb=-23.3m/s Type=DFM17 ser=[BC]22055258 Details on http://radiosondy.info
W4DEX-14D220552582023-03-29 12:54:0935.8337-78.2131734821598Clb=-22.3m/s Type=DFM17 ser=[BC]22055258 Details on http://radiosondy.info
W4TBD-12D220552582023-03-29 12:54:0635.8335-78.2141714821705Clb=-23.8m/s t=-59.5C h=-1.0% p=-1.0hPa 403.401 MHz Type=DFM17 ser=22055258 Radiosonde
W4DEX-14D220552582023-03-29 12:53:5235.8334-78.2153934121953Clb=-23.6m/s Type=DFM17 ser=[BC]22055258 Details on http://radiosondy.info
W4DEX-14D220552582023-03-29 12:53:3235.8338-78.2171133322277Clb=-19.6m/s Type=DFM17 ser=[BC]22055258 Details on http://radiosondy.info
W4TBD-12D220552582023-03-29 12:53:2435.834-78.21771213922405Clb=-18.3m/s t=-56.6C h=-1.0% p=-1.0hPa 403.401 MHz Type=DFM17 ser=22055258 Radiosonde
W4DEX-14D220552582023-03-29 12:53:0635.8345-78.21831523022581Clb=-17.6m/s Type=DFM17 ser=[BC]22055258 Details on http://radiosondy.info
W4DEX-14D220552582023-03-29 12:52:3935.8354-78.2191333522906Clb=-22.2m/s Type=DFM17 ser=[BC]22055258 Details on http://radiosondy.info
W4TBD-12D220552582023-03-29 12:52:2635.8359-78.21981283923060Clb=-21.3m/s t=-56.5C h=-1.0% p=-1.0hPa 403.401 MHz Type=DFM17 ser=22055258 Radiosonde
W4DEX-14D220552582023-03-29 12:52:0835.8376-78.2662834831582Clb=7.3m/s Type=DFM17 ser=[BC]22055258 Details on http://radiosondy.info
W4TBD-12D220552582023-03-29 12:51:5635.8374-78.26711392831535Clb=7.8m/s t=-42.2C h=-1.0% p=-1.0hPa 403.401 MHz Type=DFM17 ser=22055258 Radiosonde
W4DEX-14D220552582023-03-29 12:51:4135.8373-78.2682754831487Clb=11.5m/s Type=DFM17 ser=[BC]22055258 Details on http://radiosondy.info
W4DEX-14D220552582023-03-29 12:51:1535.8372-78.2699204431390Clb=0.4m/s Type=DFM17 ser=[BC]22055258 Details on http://radiosondy.info
W4TBD-12D220552582023-03-29 12:51:0035.837-78.2709505931331Clb=5.7m/s t=-41.7C h=-1.0% p=-1.0hPa 403.401 MHz Type=DFM17 ser=22055258 Radiosonde
W4DEX-14D220552582023-03-29 12:50:4735.837-78.27151084431287Clb=7.6m/s Type=DFM17 ser=[BC]22055258 Details on http://radiosondy.info
W4DEX-14D220552582023-03-29 12:50:1635.8367-78.2734504431186Clb=5.8m/s Type=DFM17 ser=[BC]22055258 Details on http://radiosondy.info
W4TBD-12D220552582023-03-29 12:49:5735.8367-78.27441561731125Clb=8.5m/s t=-41.8C h=-1.0% p=-1.0hPa 403.401 MHz Type=DFM17 ser=22055258 Radiosonde
W4DEX-14D220552582023-03-29 12:49:4535.837-78.2751744431081Clb=7.1m/s Type=DFM17 ser=[BC]22055258 Details on http://radiosondy.info
W4DEX-14D220552582023-03-29 12:49:1535.8371-78.2769806130971Clb=0.7m/s Type=DFM17 ser=[BC]22055258 Details on http://radiosondy.info
W4TBD-12D220552582023-03-29 12:48:5435.8377-78.2787526930896Clb=13.9m/s t=-41.3C h=-1.0% p=-1.0hPa 403.401 MHz Type=DFM17 ser=22055258 Radiosonde
W4DEX-14D220552582023-03-29 12:48:4335.8375-78.279765930864Clb=-2.4m/s Type=DFM17 ser=[BC]22055258 Details on http://radiosondy.info
W4DEX-14D220552582023-03-29 12:48:1035.8376-78.28151076130763Clb=9.8m/s Type=DFM17 ser=[BC]22055258 Details on http://radiosondy.info
W4TBD-12D220552582023-03-29 12:47:5135.8377-78.2835855030694Clb=4.9m/s t=-41.3C h=-1.0% p=-1.0hPa 403.401 MHz Type=DFM17 ser=22055258 Radiosonde
W4DEX-14D220552582023-03-29 12:47:4035.838-78.2843985730664Clb=6.1m/s Type=DFM17 ser=[BC]22055258 Details on http://radiosondy.info
W4DEX-14D220552582023-03-29 12:47:0635.8385-78.2868964830566Clb=14.5m/s Type=DFM17 ser=[BC]22055258 Details on http://radiosondy.info
W4TBD-12D220552582023-03-29 12:46:4735.8387-78.2881241330486Clb=2.5m/s t=-42.2C h=-1.0% p=-1.0hPa 403.401 MHz Type=DFM17 ser=22055258 Radiosonde
W4DEX-14D220552582023-03-29 12:46:3835.8389-78.28841093730458Clb=3.2m/s Type=DFM17 ser=[BC]22055258 Details on http://radiosondy.info
W4DEX-14D220552582023-03-29 12:46:1135.8395-78.2895995030374Clb=9.3m/s Type=DFM17 ser=[BC]22055258 Details on http://radiosondy.info
W4TBD-12D220552582023-03-29 12:45:5135.8402-78.29091454330301Clb=1.3m/s t=-43.0C h=-1.0% p=-1.0hPa 403.401 MHz Type=DFM17 ser=22055258 Radiosonde
W4DEX-14D220552582023-03-29 12:45:4035.8402-78.2913844330256Clb=9.5m/s Type=DFM17 ser=[BC]22055258 Details on http://radiosondy.info
W4DEX-14D220552582023-03-29 12:45:0035.8407-78.2931463730157Clb=-2.4m/s Type=DFM17 ser=[BC]22055258 Details on http://radiosondy.info
W4TBD-12D220552582023-03-29 12:44:4135.841-78.294516730076Clb=3.1m/s t=-44.0C h=-1.0% p=-1.0hPa 403.401 MHz Type=DFM17 ser=22055258 Radiosonde
W4DEX-14D220552582023-03-29 12:44:3035.841-78.29431614630060Clb=13.3m/s Type=DFM17 ser=[BC]22055258 Details on http://radiosondy.info
W4DEX-14D220552582023-03-29 12:43:5435.8415-78.2957965229960Clb=5.3m/s Type=DFM17 ser=[BC]22055258 Details on http://radiosondy.info
W4TBD-12D220552582023-03-29 12:43:3235.8419-78.2971447029883Clb=7.4m/s t=-45.1C h=-1.0% p=-1.0hPa 403.401 MHz Type=DFM17 ser=22055258 Radiosonde
W4DEX-14D220552582023-03-29 12:43:2535.8422-78.2973424429858Clb=9.1m/s Type=DFM17 ser=[BC]22055258 Details on http://radiosondy.info
W4DEX-14D220552582023-03-29 12:42:5135.8427-78.29891214429749Clb=-0.6m/s Type=DFM17 ser=[BC]22055258 Details on http://radiosondy.info
W4TBD-12D220552582023-03-29 12:42:2835.8431-78.29983552429676Clb=12.1m/s t=-46.1C h=-1.0% p=-1.0hPa 403.401 MHz Type=DFM17 ser=22055258 Radiosonde
W4DEX-14D220552582023-03-29 12:42:2135.8431-78.2998775029670Clb=4.8m/s Type=DFM17 ser=[BC]22055258 Details on http://radiosondy.info
W4DEX-14D220552582023-03-29 12:41:5335.8431-78.30191024429541Clb=4.3m/s Type=DFM17 ser=[BC]22055258 Details on http://radiosondy.info
W4TBD-12D220552582023-03-29 12:41:2835.8432-78.3036904829467Clb=-1.2m/s t=-45.9C h=-1.0% p=-1.0hPa 403.401 MHz Type=DFM17 ser=22055258 Radiosonde
W4DEX-14D220552582023-03-29 12:41:2535.8432-78.30361053329449Clb=19.3m/s Type=DFM17 ser=[BC]22055258 Details on http://radiosondy.info
W4DEX-14D220552582023-03-29 12:40:5135.8433-78.3046993729349Clb=3.0m/s Type=DFM17 ser=[BC]22055258 Details on http://radiosondy.info
W4TBD-12D220552582023-03-29 12:40:1935.8435-78.30581364829252Clb=10.8m/s t=-46.5C h=-1.0% p=-1.0hPa 403.401 MHz Type=DFM17 ser=22055258 Radiosonde
W4DEX-14D220552582023-03-29 12:40:1835.8434-78.30571393929252Clb=10.8m/s Type=DFM17 ser=[BC]22055258 Details on http://radiosondy.info
W4DEX-14D220552582023-03-29 12:39:4735.8437-78.30693123529156Clb=3.0m/s Type=DFM17 ser=[BC]22055258 Details on http://radiosondy.info
W4DEX-14D220552582023-03-29 12:39:1535.8443-78.30811773729064Clb=9.7m/s Type=DFM17 ser=[BC]22055258 Details on http://radiosondy.info
W4TBD-12D220552582023-03-29 12:39:1435.8443-78.3081525029045Clb=1.3m/s t=-46.9C h=-1.0% p=-1.0hPa 403.401 MHz Type=DFM17 ser=22055258 Radiosonde
W4DEX-14D220552582023-03-29 12:38:4235.8449-78.3089423928952Clb=0.2m/s Type=DFM17 ser=[BC]22055258 Details on http://radiosondy.info
W4TBD-12D220552582023-03-29 12:38:0535.8454-78.31011084428847Clb=-1.2m/s t=-47.6C h=-1.0% p=-1.0hPa 403.401 MHz Type=DFM17 ser=22055258 Radiosonde
W4DEX-14D220552582023-03-29 12:37:3535.8458-78.3107724328755Clb=2.0m/s Type=DFM17 ser=[BC]22055258 Details on http://radiosondy.info
W4DEX-14D220552582023-03-29 12:37:0035.8463-78.31221873328662Clb=7.1m/s Type=DFM17 ser=[BC]22055258 Details on http://radiosondy.info
W4TBD-12D220552582023-03-29 12:36:5735.8465-78.3119346928638Clb=1.2m/s t=-48.7C h=-1.0% p=-1.0hPa 403.401 MHz Type=DFM17 ser=22055258 Radiosonde
W4DEX-14D220552582023-03-29 12:36:3535.8467-78.31241303028563Clb=0.1m/s Type=DFM17 ser=[BC]22055258 Details on http://radiosondy.info
W4DEX-14D220552582023-03-29 12:36:0535.8469-78.31281463328459Clb=8.4m/s Type=DFM17 ser=[BC]22055258 Details on http://radiosondy.info
W4TBD-12D220552582023-03-29 12:36:0035.847-78.31261901528438Clb=1.5m/s t=-49.4C h=-1.0% p=-1.0hPa 403.401 MHz Type=DFM17 ser=22055258 Radiosonde
W4DEX-14D220552582023-03-29 12:35:4235.8471-78.3129593128367Clb=-0.3m/s Type=DFM17 ser=[BC]22055258 Details on http://radiosondy.info
W4DEX-14D220552582023-03-29 12:35:2635.8473-78.31332073328252Clb=0.7m/s Type=DFM17 ser=[BC]22055258 Details on http://radiosondy.info
W4TBD-12D220552582023-03-29 12:35:2335.8475-78.31311832428200Clb=4.0m/s t=-50.3C h=-1.0% p=-1.0hPa 403.401 MHz Type=DFM17 ser=22055258 Radiosonde
W4DEX-14D220552582023-03-29 12:35:0435.8476-78.31331633728156Clb=4.9m/s Type=DFM17 ser=[BC]22055258 Details on http://radiosondy.info
W4DEX-14D220552582023-03-29 12:34:4935.8481-78.31372323028053Clb=10.5m/s Type=DFM17 ser=[BC]22055258 Details on http://radiosondy.info
W4TBD-12D220552582023-03-29 12:34:4535.8483-78.3142731528010Clb=2.8m/s t=-51.0C h=-1.0% p=-1.0hPa 403.401 MHz Type=DFM17 ser=22055258 Radiosonde
W4DEX-14D220552582023-03-29 12:34:4435.8484-78.3142522427932Clb=0.1m/s Type=DFM17 ser=[BC]22055258 Details on http://radiosondy.info
W4DEX-14D220552582023-03-29 12:34:4235.8487-78.31471353127836Clb=1.0m/s Type=DFM17 ser=[BC]22055258 Details on http://radiosondy.info
W4TBD-12D220552582023-03-29 12:34:4135.8488-78.314873327807Clb=1.4m/s t=-51.0C h=-1.0% p=-1.0hPa 403.401 MHz Type=DFM17 ser=22055258 Radiosonde
W4DEX-14D220552582023-03-29 12:34:4035.8489-78.31522373527733Clb=7.4m/s Type=DFM17 ser=[BC]22055258 Details on http://radiosondy.info
W4DEX-14D220552582023-03-29 12:34:3635.8491-78.31542274127639Clb=2.5m/s Type=DFM17 ser=[BC]22055258 Details on http://radiosondy.info
W4TBD-12D220552582023-03-29 12:34:3335.849-78.31562653027602Clb=10.3m/s t=-52.0C h=-1.0% p=-1.0hPa 403.401 MHz Type=DFM17 ser=22055258 Radiosonde
W4DEX-14D220552582023-03-29 12:34:2235.8493-78.31571164427530Clb=9.1m/s Type=DFM17 ser=[BC]22055258 Details on http://radiosondy.info
W4DEX-14D220552582023-03-29 12:34:0435.8494-78.316343727416Clb=-0.3m/s Type=DFM17 ser=[BC]22055258 Details on http://radiosondy.info
W4TBD-12D220552582023-03-29 12:34:0235.8496-78.31641505627368Clb=1.1m/s t=-52.3C h=-1.0% p=-1.0hPa 403.401 MHz Type=DFM17 ser=22055258 Radiosonde
W4DEX-14D220552582023-03-29 12:33:4935.8496-78.31651793927328Clb=10.8m/s Type=DFM17 ser=[BC]22055258 Details on http://radiosondy.info
W4DEX-14D220552582023-03-29 12:33:1635.8496-78.317753327229Clb=1.8m/s Type=DFM17 ser=[BC]22055258 Details on http://radiosondy.info
W4TBD-12D220552582023-03-29 12:33:0235.8495-78.3171584627185Clb=8.7m/s t=-52.4C h=-1.0% p=-1.0hPa 403.401 MHz Type=DFM17 ser=22055258 Radiosonde
W4DEX-14D220552582023-03-29 12:32:4335.8495-78.31691223127134Clb=2.2m/s Type=DFM17 ser=[BC]22055258 Details on http://radiosondy.info
W4DEX-14D220552582023-03-29 12:32:0335.8611-78.3291243523732Clb=3.0m/s Type=DFM17 ser=[BC]22055258 Details on http://radiosondy.info
W4DEX-14D220552582023-03-29 12:31:3235.8614-78.33012923723638Clb=4.5m/s Type=DFM17 ser=[BC]22055258 Details on http://radiosondy.info
W4TBD-12D220552582023-03-29 12:31:3135.8612-78.3302605023633Clb=4.2m/s t=-57.4C h=-1.0% p=-1.0hPa 403.401 MHz Type=DFM17 ser=22055258 Radiosonde
W4DEX-14D220552582023-03-29 12:31:0235.8612-78.33081362823542Clb=12.4m/s Type=DFM17 ser=[BC]22055258 Details on http://radiosondy.info
W4DEX-14D220552582023-03-29 12:30:2135.8616-78.33111803123445Clb=1.2m/s Type=DFM17 ser=[BC]22055258 Details on http://radiosondy.info
W4TBD-12D220552582023-03-29 12:30:0235.8618-78.33111641723439Clb=10.3m/s t=-57.9C h=-1.0% p=-1.0hPa 403.401 MHz Type=DFM17 ser=22055258 Radiosonde
W4DEX-14D220552582023-03-29 12:29:3135.8625-78.33151473123360Clb=8.8m/s Type=DFM17 ser=[BC]22055258 Details on http://radiosondy.info
W4DEX-14D220552582023-03-29 12:28:5335.8633-78.33211643523244Clb=-2.0m/s Type=DFM17 ser=[BC]22055258 Details on http://radiosondy.info
W4TBD-12D220552582023-03-29 12:28:5035.8637-78.33241385623243Clb=-2.1m/s t=-56.8C h=-1.0% p=-1.0hPa 403.401 MHz Type=DFM17 ser=22055258 Radiosonde
W4DEX-14D220552582023-03-29 12:28:2235.8643-78.33311685723169Clb=9.1m/s Type=DFM17 ser=[BC]22055258 Details on http://radiosondy.info
W4DEX-14D220552582023-03-29 12:27:5135.8652-78.335864823079Clb=2.6m/s Type=DFM17 ser=[BC]22055258 Details on http://radiosondy.info
W4TBD-12D220552582023-03-29 12:27:4635.8654-78.33531477023062Clb=2.6m/s t=-57.2C h=-1.0% p=-1.0hPa 403.401 MHz Type=DFM17 ser=22055258 Radiosonde
W4DEX-14D220552582023-03-29 12:27:2035.8659-78.33661554322982Clb=-3.0m/s Type=DFM17 ser=[BC]22055258 Details on http://radiosondy.info
W4DEX-14D220552582023-03-29 12:26:4635.8671-78.33821314422891Clb=6.3m/s Type=DFM17 ser=[BC]22055258 Details on http://radiosondy.info
W4TBD-12D220552582023-03-29 12:26:3935.8675-78.33851417022872Clb=4.4m/s t=-57.1C h=-1.0% p=-1.0hPa 403.401 MHz Type=DFM17 ser=22055258 Radiosonde
W4DEX-14D220552582023-03-29 12:26:2035.8682-78.33912674122806Clb=0.9m/s Type=DFM17 ser=[BC]22055258 Details on http://radiosondy.info
W4DEX-14D220552582023-03-29 12:25:5035.8693-78.33951644422717Clb=0.4m/s Type=DFM17 ser=[BC]22055258 Details on http://radiosondy.info
W4TBD-12D220552582023-03-29 12:25:3935.8697-78.33971705722695Clb=2.1m/s t=-56.9C h=-1.0% p=-1.0hPa 403.401 MHz Type=DFM17 ser=22055258 Radiosonde
W4DEX-14D220552582023-03-29 12:25:1035.8704-78.34031454422637Clb=8.8m/s Type=DFM17 ser=[BC]22055258 Details on http://radiosondy.info
W4DEX-14D220552582023-03-29 12:24:3635.8714-78.34111564422544Clb=11.7m/s Type=DFM17 ser=[BC]22055258 Details on http://radiosondy.info
W4TBD-12D220552582023-03-29 12:24:2835.8719-78.34173561522511Clb=5.4m/s t=-56.4C h=-1.0% p=-1.0hPa 403.401 MHz Type=DFM17 ser=22055258 Radiosonde
W4DEX-14D220552582023-03-29 12:24:0935.8723-78.34261604822453Clb=7.2m/s Type=DFM17 ser=[BC]22055258 Details on http://radiosondy.info
W4DEX-14D220552582023-03-29 12:23:3635.873-78.3438654422369Clb=7.9m/s Type=DFM17 ser=[BC]22055258 Details on http://radiosondy.info
W4TBD-12D220552582023-03-29 12:23:2335.8731-78.3447551922335Clb=8.5m/s t=-57.5C h=-1.0% p=-1.0hPa 403.401 MHz Type=DFM17 ser=22055258 Radiosonde
W4DEX-14D220552582023-03-29 12:22:5835.8734-78.34581254622271Clb=0.6m/s Type=DFM17 ser=[BC]22055258 Details on http://radiosondy.info
W4DEX-14D220552582023-03-29 12:22:2935.8741-78.3472705022183Clb=1.1m/s Type=DFM17 ser=[BC]22055258 Details on http://radiosondy.info
W4DEX-14D220552582023-03-29 12:21:5535.8744-78.3493575622099Clb=10.0m/s Type=DFM17 ser=[BC]22055258 Details on http://radiosondy.info
W4DEX-14D220552582023-03-29 12:21:2535.8745-78.3513666322004Clb=9.6m/s Type=DFM17 ser=[BC]22055258 Details on http://radiosondy.info
W4TBD-12D220552582023-03-29 12:21:1535.8744-78.3523637021975Clb=5.0m/s t=-58.9C h=-1.0% p=-1.0hPa 403.401 MHz Type=DFM17 ser=22055258 Radiosonde
W4DEX-14D220552582023-03-29 12:20:5535.8743-78.35381035421912Clb=11.5m/s Type=DFM17 ser=[BC]22055258 Details on http://radiosondy.info
W4DEX-14D220552582023-03-29 12:20:2235.874-78.3561385221822Clb=4.0m/s Type=DFM17 ser=[BC]22055258 Details on http://radiosondy.info
W4TBD-12D220552582023-03-29 12:20:0935.8738-78.3571556721787Clb=1.1m/s t=-58.8C h=-1.0% p=-1.0hPa 403.401 MHz Type=DFM17 ser=22055258 Radiosonde
W4DEX-14D220552582023-03-29 12:19:4935.8734-78.3583785421735Clb=9.8m/s Type=DFM17 ser=[BC]22055258 Details on http://radiosondy.info
W4DEX-14D220552582023-03-29 12:19:1435.873-78.3603594821651Clb=3.7m/s Type=DFM17 ser=[BC]22055258 Details on http://radiosondy.info
W4TBD-12D220552582023-03-29 12:19:0235.8726-78.3613484821612Clb=9.4m/s t=-58.2C h=-1.0% p=-1.0hPa 403.401 MHz Type=DFM17 ser=22055258 Radiosonde
W4DEX-14D220552582023-03-29 12:18:4135.8722-78.3623746721562Clb=4.2m/s Type=DFM17 ser=[BC]22055258 Details on http://radiosondy.info
W4DEX-14D220552582023-03-29 12:18:0235.8716-78.3648845621487Clb=7.2m/s Type=DFM17 ser=[BC]22055258 Details on http://radiosondy.info
W4TBD-12D220552582023-03-29 12:17:4435.871-78.3659404821433Clb=1.4m/s t=-57.6C h=-1.0% p=-1.0hPa 403.401 MHz Type=DFM17 ser=22055258 Radiosonde
W4DEX-14D220552582023-03-29 12:17:3035.8707-78.3669515621380Clb=2.2m/s Type=DFM17 ser=[BC]22055258 Details on http://radiosondy.info
W4DEX-14D220552582023-03-29 12:16:5735.8703-78.36911165221307Clb=9.3m/s Type=DFM17 ser=[BC]22055258 Details on http://radiosondy.info
W4TBD-12D220552582023-03-29 12:16:4235.8701-78.3703685421259Clb=2.9m/s t=-58.0C h=-1.0% p=-1.0hPa 403.401 MHz Type=DFM17 ser=22055258 Radiosonde
W4DEX-14D220552582023-03-29 12:16:2935.8702-78.3709335021225Clb=-0.2m/s Type=DFM17 ser=[BC]22055258 Details on http://radiosondy.info
W4DEX-14D220552582023-03-29 12:16:0135.8702-78.37281044321144Clb=1.1m/s Type=DFM17 ser=[BC]22055258 Details on http://radiosondy.info
W4TBD-12D220552582023-03-29 12:15:5435.8703-78.3736404121101Clb=6.3m/s t=-57.6C h=-1.0% p=-1.0hPa 403.401 MHz Type=DFM17 ser=22055258 Radiosonde
W4DEX-14D220552582023-03-29 12:15:4535.8704-78.3741533321071Clb=9.0m/s Type=DFM17 ser=[BC]22055258 Details on http://radiosondy.info
W4DEX-14D220552582023-03-29 12:15:2735.8707-78.37561084620993Clb=2.6m/s Type=DFM17 ser=[BC]22055258 Details on http://radiosondy.info
W4TBD-12D220552582023-03-29 12:15:0935.871-78.3765783920941Clb=4.5m/s t=-56.6C h=-1.0% p=-1.0hPa 403.401 MHz Type=DFM17 ser=22055258 Radiosonde
W4DEX-14D220552582023-03-29 12:15:0035.8713-78.3771444420914Clb=1.5m/s Type=DFM17 ser=[BC]22055258 Details on http://radiosondy.info
W4DEX-14D220552582023-03-29 12:14:4535.8717-78.37881115620834Clb=5.2m/s Type=DFM17 ser=[BC]22055258 Details on http://radiosondy.info
W4TBD-12D220552582023-03-29 12:14:3935.8722-78.3804985620780Clb=3.8m/s t=-56.2C h=-1.0% p=-1.0hPa 403.401 MHz Type=DFM17 ser=22055258 Radiosonde
W4DEX-14D220552582023-03-29 12:14:3535.8725-78.38091296120758Clb=8.5m/s Type=DFM17 ser=[BC]22055258 Details on http://radiosondy.info
W4DEX-14D220552582023-03-29 12:14:1835.8731-78.3834857620683Clb=4.9m/s Type=DFM17 ser=[BC]22055258 Details on http://radiosondy.info
W4TBD-12D220552582023-03-29 12:14:0335.8735-78.38639210220623Clb=1.2m/s t=-59.9C h=-1.0% p=-1.0hPa 403.401 MHz Type=DFM17 ser=22055258 Radiosonde
W4DEX-14D220552582023-03-29 12:14:0035.8736-78.38671126720606Clb=2.6m/s Type=DFM17 ser=[BC]22055258 Details on http://radiosondy.info
W4DEX-14D220552582023-03-29 12:13:4835.8735-78.3897876920524Clb=1.5m/s Type=DFM17 ser=[BC]22055258 Details on http://radiosondy.info
W4TBD-12D220552582023-03-29 12:13:3435.8736-78.39291067620455Clb=5.2m/s t=-60.5C h=-1.0% p=-1.0hPa 403.401 MHz Type=DFM17 ser=22055258 Radiosonde
W4DEX-14D220552582023-03-29 12:13:3035.8736-78.39291096520449Clb=6.9m/s Type=DFM17 ser=[BC]22055258 Details on http://radiosondy.info
W4TBD-12D220552582023-03-29 12:13:0735.8909-78.56039515617854Clb=2.1m/s t=-61.9C h=-1.0% p=-1.0hPa 403.401 MHz Type=DFM17 ser=22055258 Radiosonde
W4DEX-14D220552582023-03-29 12:13:0235.891-78.56119713517839Clb=1.8m/s Type=DFM17 ser=[BC]22055258 Details on http://radiosondy.info
W4DEX-14D220552582023-03-29 12:12:3435.8914-78.56739713717761Clb=7.5m/s Type=DFM17 ser=[BC]22055258 Details on http://radiosondy.info
W4TBD-12D220552582023-03-29 12:12:1135.8922-78.573110812217695Clb=4.6m/s t=-61.0C h=-1.0% p=-1.0hPa 403.401 MHz Type=DFM17 ser=22055258 Radiosonde
W4DEX-14D220552582023-03-29 12:12:0835.8922-78.57359813717686Clb=9.0m/s Type=DFM17 ser=[BC]22055258 Details on http://radiosondy.info
W4DEX-14D220552582023-03-29 12:11:4035.8931-78.579810214617612Clb=6.1m/s Type=DFM17 ser=[BC]22055258 Details on http://radiosondy.info
W4TBD-12D220552582023-03-29 12:11:1935.8943-78.58639814317542Clb=5.5m/s t=-61.4C h=-1.0% p=-1.0hPa 403.401 MHz Type=DFM17 ser=22055258 Radiosonde
W4DEX-14D220552582023-03-29 12:11:1635.8943-78.58639915417535Clb=7.0m/s Type=DFM17 ser=[BC]22055258 Details on http://radiosondy.info
W4DEX-14D220552582023-03-29 12:10:4935.8954-78.59339815417463Clb=8.3m/s Type=DFM17 ser=[BC]22055258 Details on http://radiosondy.info
W4DEX-14D220552582023-03-29 12:10:0835.8963-78.600210015917388Clb=8.5m/s Type=DFM17 ser=[BC]22055258 Details on http://radiosondy.info
W4DEX-14D220552582023-03-29 12:09:3935.8971-78.60759615417311Clb=6.4m/s Type=DFM17 ser=[BC]22055258 Details on http://radiosondy.info
W4DEX-14D220552582023-03-29 12:09:1135.8974-78.61459815717234Clb=5.8m/s Type=DFM17 ser=[BC]22055258 Details on http://radiosondy.info
W4TBD-12D220552582023-03-29 12:09:0935.8975-78.61559716717229Clb=4.5m/s t=-60.9C h=-1.0% p=-1.0hPa 403.401 MHz Type=DFM17 ser=22055258 Radiosonde
W4DEX-14D220552582023-03-29 12:08:4735.8976-78.62179115417157Clb=3.1m/s Type=DFM17 ser=[BC]22055258 Details on http://radiosondy.info
W4DEX-14D220552582023-03-29 12:08:1535.8974-78.62889215717078Clb=3.4m/s Type=DFM17 ser=[BC]22055258 Details on http://radiosondy.info
W4TBD-12D220552582023-03-29 12:08:1135.8973-78.63077914817062Clb=2.1m/s t=-61.0C h=-1.0% p=-1.0hPa 403.401 MHz Type=DFM17 ser=22055258 Radiosonde
W4DEX-14D220552582023-03-29 12:07:4735.897-78.63597515617002Clb=2.8m/s Type=DFM17 ser=[BC]22055258 Details on http://radiosondy.info
W4DEX-14D220552582023-03-29 12:07:2035.8966-78.64299315416922Clb=2.5m/s Type=DFM17 ser=[BC]22055258 Details on http://radiosondy.info
W4TBD-12D220552582023-03-29 12:07:1535.8965-78.64538813916900Clb=8.0m/s t=-60.8C h=-1.0% p=-1.0hPa 403.401 MHz Type=DFM17 ser=22055258 Radiosonde
W4DEX-14D220552582023-03-29 12:06:5535.8965-78.65018915616845Clb=8.2m/s Type=DFM17 ser=[BC]22055258 Details on http://radiosondy.info
W4DEX-14D220552582023-03-29 12:06:3335.8966-78.65719016116765Clb=5.5m/s Type=DFM17 ser=[BC]22055258 Details on http://radiosondy.info
W4TBD-12D220552582023-03-29 12:06:2635.8966-78.66058817216736Clb=-1.0m/s t=-60.1C h=-1.0% p=-1.0hPa 403.401 MHz Type=DFM17 ser=22055258 Radiosonde
W4DEX-14D220552582023-03-29 12:06:0935.8968-78.664510516716687Clb=3.1m/s Type=DFM17 ser=[BC]22055258 Details on http://radiosondy.info
W4DEX-14D220552582023-03-29 12:05:4535.8974-78.6729818716602Clb=6.2m/s Type=DFM17 ser=[BC]22055258 Details on http://radiosondy.info
W4TBD-12D220552582023-03-29 12:05:3635.8977-78.6769020016570Clb=5.3m/s t=-60.2C h=-1.0% p=-1.0hPa 403.401 MHz Type=DFM17 ser=22055258 Radiosonde
W4DEX-14D220552582023-03-29 12:05:2035.898-78.680610018916526Clb=3.5m/s Type=DFM17 ser=[BC]22055258 Details on http://radiosondy.info
W4DEX-14D220552582023-03-29 12:04:4935.8985-78.68928818716450Clb=4.9m/s Type=DFM17 ser=[BC]22055258 Details on http://radiosondy.info
W4TBD-12D220552582023-03-29 12:04:3835.8987-78.69389818116415Clb=4.5m/s t=-60.1C h=-1.0% p=-1.0hPa 403.401 MHz Type=DFM17 ser=22055258 Radiosonde
W4DEX-14D220552582023-03-29 12:04:2335.8988-78.69789318316378Clb=5.2m/s Type=DFM17 ser=[BC]22055258 Details on http://radiosondy.info
W4DEX-14D220552582023-03-29 12:03:5835.8988-78.70629118716305Clb=6.6m/s Type=DFM17 ser=[BC]22055258 Details on http://radiosondy.info
W4TBD-12D220552582023-03-29 12:03:4435.8989-78.71159019116270Clb=4.7m/s t=-59.3C h=-1.0% p=-1.0hPa 403.401 MHz Type=DFM17 ser=22055258 Radiosonde
W4DEX-14D220552582023-03-29 12:03:3135.8989-78.71488917816236Clb=3.3m/s Type=DFM17 ser=[BC]22055258 Details on http://radiosondy.info
W4DEX-14D220552582023-03-29 12:02:5835.8988-78.7239118016164Clb=1.4m/s Type=DFM17 ser=[BC]22055258 Details on http://radiosondy.info
W4TBD-12D220552582023-03-29 12:02:4235.8988-78.72848516116122Clb=2.3m/s t=-58.3C h=-1.0% p=-1.0hPa 403.401 MHz Type=DFM17 ser=22055258 Radiosonde
W4DEX-14D220552582023-03-29 12:02:3035.8988-78.73128617416094Clb=2.5m/s Type=DFM17 ser=[BC]22055258 Details on http://radiosondy.info
W4DEX-14D220552582023-03-29 12:02:0035.8987-78.73929017016021Clb=3.5m/s Type=DFM17 ser=[BC]22055258 Details on http://radiosondy.info
W4TBD-12D220552582023-03-29 12:01:4135.8986-78.74518817215975Clb=7.0m/s t=-57.2C h=-1.0% p=-1.0hPa 403.401 MHz Type=DFM17 ser=22055258 Radiosonde
W4DEX-14D220552582023-03-29 12:01:3235.8986-78.74718917015951Clb=2.4m/s Type=DFM17 ser=[BC]22055258 Details on http://radiosondy.info
W4DEX-14D220552582023-03-29 12:01:0635.8983-78.75498616915882Clb=6.3m/s Type=DFM17 ser=[BC]22055258 Details on http://radiosondy.info
W4TBD-12D220552582023-03-29 12:00:4935.8983-78.76098616315828Clb=4.4m/s t=-56.8C h=-1.0% p=-1.0hPa 403.401 MHz Type=DFM17 ser=22055258 Radiosonde
W4DEX-14D220552582023-03-29 12:00:4035.8983-78.76269316115802Clb=4.4m/s Type=DFM17 ser=[BC]22055258 Details on http://radiosondy.info
W4DEX-14D220552582023-03-29 12:00:0935.8984-78.779316515735Clb=5.9m/s Type=DFM17 ser=[BC]22055258 Details on http://radiosondy.info
W4TBD-12D220552582023-03-29 11:59:4335.8984-78.77668216115675Clb=3.2m/s t=-56.3C h=-1.0% p=-1.0hPa 403.401 MHz Type=DFM17 ser=22055258 Radiosonde
W4DEX-14D220552582023-03-29 11:59:3735.8984-78.77769417015661Clb=3.3m/s Type=DFM17 ser=[BC]22055258 Details on http://radiosondy.info
W4DEX-14D220552582023-03-29 11:59:0835.8986-78.78548817415588Clb=3.2m/s Type=DFM17 ser=[BC]22055258 Details on http://radiosondy.info
W4TBD-12D220552582023-03-29 11:58:4635.8986-78.79349417415518Clb=4.9m/s t=-55.2C h=-1.0% p=-1.0hPa 403.401 MHz Type=DFM17 ser=22055258 Radiosonde
W4DEX-14D220552582023-03-29 11:58:4235.8986-78.79349518115515Clb=1.5m/s Type=DFM17 ser=[BC]22055258 Details on http://radiosondy.info
W4DEX-14D220552582023-03-29 11:58:1135.8987-78.80178418515440Clb=4.3m/s Type=DFM17 ser=[BC]22055258 Details on http://radiosondy.info
W4TBD-12D220552582023-03-29 11:57:4635.8989-78.81029518515371Clb=3.6m/s t=-55.5C h=-1.0% p=-1.0hPa 403.401 MHz Type=DFM17 ser=22055258 Radiosonde
W4DEX-14D220552582023-03-29 11:57:4235.8989-78.81029618115366Clb=6.0m/s Type=DFM17 ser=[BC]22055258 Details on http://radiosondy.info
W4DEX-14D220552582023-03-29 11:57:1435.899-78.81859118115294Clb=5.7m/s Type=DFM17 ser=[BC]22055258 Details on http://radiosondy.info
W4TBD-12D220552582023-03-29 11:56:4535.8993-78.82758618115221Clb=5.6m/s t=-57.3C h=-1.0% p=-1.0hPa 403.401 MHz Type=DFM17 ser=22055258 Radiosonde
W4DEX-14D220552582023-03-29 11:56:4435.8993-78.82698718715221Clb=5.5m/s Type=DFM17 ser=[BC]22055258 Details on http://radiosondy.info
W4DEX-14D220552582023-03-29 11:56:1935.8994-78.83569219115149Clb=5.8m/s Type=DFM17 ser=[BC]22055258 Details on http://radiosondy.info
W4DEX-14D220552582023-03-29 11:55:5735.8995-78.84439519415078Clb=2.8m/s Type=DFM17 ser=[BC]22055258 Details on http://radiosondy.info
W4TBD-12D220552582023-03-29 11:55:5635.8996-78.84558819315073Clb=7.5m/s t=-58.3C h=-1.0% p=-1.0hPa 403.401 MHz Type=DFM17 ser=22055258 Radiosonde
W4DEX-14D220552582023-03-29 11:55:4235.8998-78.85329318915007Clb=4.5m/s Type=DFM17 ser=[BC]22055258 Details on http://radiosondy.info
W4DEX-14D220552582023-03-29 11:55:2635.9-78.8888119114722Clb=1.8m/s Type=DFM17 ser=[BC]22055258 Details on http://radiosondy.info
W4DEX-14D220552582023-03-29 11:55:0735.8996-78.89679519314652Clb=3.7m/s Type=DFM17 ser=[BC]22055258 Details on http://radiosondy.info
W4TBD-12D220552582023-03-29 11:55:0435.8994-78.90029020214628Clb=4.7m/s t=-58.7C h=-1.0% p=-1.0hPa 403.401 MHz Type=DFM17 ser=22055258 Radiosonde
W4DEX-14D220552582023-03-29 11:54:5935.8991-78.90558019314581Clb=4.7m/s Type=DFM17 ser=[BC]22055258 Details on http://radiosondy.info
W4DEX-14D220552582023-03-29 11:54:5535.8986-78.91438619614515Clb=4.8m/s Type=DFM17 ser=[BC]22055258 Details on http://radiosondy.info
W4TBD-12D220552582023-03-29 11:54:5335.8984-78.91858220914487Clb=2.5m/s t=-59.0C h=-1.0% p=-1.0hPa 403.401 MHz Type=DFM17 ser=22055258 Radiosonde
W4DEX-14D220552582023-03-29 11:54:5235.8979-78.93238218914373Clb=7.5m/s Type=DFM17 ser=[BC]22055258 Details on http://radiosondy.info
W4TBD-12D220552582023-03-29 11:54:5035.8977-78.93699319614338Clb=3.3m/s t=-58.5C h=-1.0% p=-1.0hPa 403.401 MHz Type=DFM17 ser=22055258 Radiosonde
W4DEX-14D220552582023-03-29 11:54:4635.8977-78.9418918514303Clb=5.8m/s Type=DFM17 ser=[BC]22055258 Details on http://radiosondy.info
W4DEX-14D220552582023-03-29 11:54:4135.8972-78.94959518114228Clb=3.7m/s Type=DFM17 ser=[BC]22055258 Details on http://radiosondy.info
W4TBD-12D220552582023-03-29 11:54:3835.897-78.9558618014186Clb=5.9m/s t=-57.3C h=-1.0% p=-1.0hPa 403.401 MHz Type=DFM17 ser=22055258 Radiosonde
W4DEX-14D220552582023-03-29 11:54:3535.8969-78.95788417614159Clb=5.1m/s Type=DFM17 ser=[BC]22055258 Details on http://radiosondy.info
W4DEX-14D220552582023-03-29 11:54:2035.8967-78.96599117414089Clb=4.4m/s Type=DFM17 ser=[BC]22055258 Details on http://radiosondy.info
W4TBD-12D220552582023-03-29 11:54:1535.8968-78.97128616714051Clb=4.4m/s t=-57.3C h=-1.0% p=-1.0hPa 403.401 MHz Type=DFM17 ser=22055258 Radiosonde
W4DEX-14D220552582023-03-29 11:54:0635.8969-78.97398817214025Clb=2.0m/s Type=DFM17 ser=[BC]22055258 Details on http://radiosondy.info
W4DEX-14D220552582023-03-29 11:53:5835.8972-78.981810317613959Clb=3.9m/s Type=DFM17 ser=[BC]22055258 Details on http://radiosondy.info
W4TBD-12D220552582023-03-29 11:53:5535.8976-78.98789818713914Clb=1.9m/s t=-57.4C h=-1.0% p=-1.0hPa 403.401 MHz Type=DFM17 ser=22055258 Radiosonde
W4DEX-14D220552582023-03-29 11:53:5335.8978-78.98999818013891Clb=2.2m/s Type=DFM17 ser=[BC]22055258 Details on http://radiosondy.info
W4DEX-14D220552582023-03-29 11:53:4935.8986-78.99829718513819Clb=4.9m/s Type=DFM17 ser=[BC]22055258 Details on http://radiosondy.info
W4TBD-12D220552582023-03-29 11:53:4535.8994-79.00499819813767Clb=3.5m/s t=-57.1C h=-1.0% p=-1.0hPa 403.401 MHz Type=DFM17 ser=22055258 Radiosonde
W4DEX-14D220552582023-03-29 11:53:4335.8996-79.00669918913748Clb=6.2m/s Type=DFM17 ser=[BC]22055258 Details on http://radiosondy.info
W4DEX-14D220552582023-03-29 11:53:3935.9005-79.015210019113671Clb=3.3m/s Type=DFM17 ser=[BC]22055258 Details on http://radiosondy.info
W4TBD-12D220552582023-03-29 11:53:3535.9011-79.02289618913610Clb=7.6m/s t=-56.7C h=-1.0% p=-1.0hPa 403.401 MHz Type=DFM17 ser=22055258 Radiosonde
W4DEX-14D220552582023-03-29 11:53:3435.9012-79.023910019413594Clb=5.8m/s Type=DFM17 ser=[BC]22055258 Details on http://radiosondy.info
W4DEX-14D220552582023-03-29 11:53:3235.9019-79.03299719413515Clb=6.6m/s Type=DFM17 ser=[BC]22055258 Details on http://radiosondy.info
W4TBD-12D220552582023-03-29 11:53:2735.9022-79.04179717813438Clb=4.6m/s t=-56.1C h=-1.0% p=-1.0hPa 403.401 MHz Type=DFM17 ser=22055258 Radiosonde
W4DEX-14D220552582023-03-29 11:53:2635.9022-79.04179819313433Clb=5.4m/s Type=DFM17 ser=[BC]22055258 Details on http://radiosondy.info
W4DEX-14D220552582023-03-29 11:53:2135.9023-79.05069118913357Clb=5.1m/s Type=DFM17 ser=[BC]22055258 Details on http://radiosondy.info
W4TBD-12D220552582023-03-29 11:53:1735.9021-79.05938319313286Clb=4.0m/s t=-55.8C h=-1.0% p=-1.0hPa 403.401 MHz Type=DFM17 ser=22055258 Radiosonde
W4DEX-14D220552582023-03-29 11:53:0835.902-79.06828820213206Clb=6.8m/s Type=DFM17 ser=[BC]22055258 Details on http://radiosondy.info
W4TBD-12D220552582023-03-29 11:53:0435.9015-79.07818618913131Clb=5.8m/s t=-55.7C h=-1.0% p=-1.0hPa 403.401 MHz Type=DFM17 ser=22055258 Radiosonde
W4DEX-14D220552582023-03-29 11:52:4035.9011-79.08668520013053Clb=4.5m/s Type=DFM17 ser=[BC]22055258 Details on http://radiosondy.info
W4DEX-14D220552582023-03-29 11:52:0635.9009-79.09588920012980Clb=6.8m/s Type=DFM17 ser=[BC]22055258 Details on http://radiosondy.info
W4DEX-14D220552582023-03-29 11:51:3735.9006-79.10499519812911Clb=3.2m/s Type=DFM17 ser=[BC]22055258 Details on http://radiosondy.info
W4DEX-14D220552582023-03-29 11:51:1535.9002-79.11418319812844Clb=4.0m/s Type=DFM17 ser=[BC]22055258 Details on http://radiosondy.info
W4TBD-12D220552582023-03-29 11:51:1135.9001-79.11598719112834Clb=4.5m/s t=-54.6C h=-1.0% p=-1.0hPa 403.401 MHz Type=DFM17 ser=22055258 Radiosonde
W4DEX-14D220552582023-03-29 11:50:5035.8997-79.12318620012778Clb=5.1m/s Type=DFM17 ser=[BC]22055258 Details on http://radiosondy.info
W4DEX-14D220552582023-03-29 11:50:2835.8992-79.13248420412711Clb=6.9m/s Type=DFM17 ser=[BC]22055258 Details on http://radiosondy.info
W4TBD-12D220552582023-03-29 11:50:2435.899-79.13559119812692Clb=3.3m/s t=-54.2C h=-1.0% p=-1.0hPa 403.401 MHz Type=DFM17 ser=22055258 Radiosonde
W4DEX-14D220552582023-03-29 11:50:0035.8987-79.14188920212645Clb=2.4m/s Type=DFM17 ser=[BC]22055258 Details on http://radiosondy.info
W4DEX-14D220552582023-03-29 11:49:3535.8982-79.1518919812578Clb=4.3m/s Type=DFM17 ser=[BC]22055258 Details on http://radiosondy.info
W4TBD-12D220552582023-03-29 11:49:3035.898-79.1548419312561Clb=5.5m/s t=-54.5C h=-1.0% p=-1.0hPa 403.401 MHz Type=DFM17 ser=22055258 Radiosonde
W4DEX-14D220552582023-03-29 11:49:0935.8977-79.16018419812512Clb=4.8m/s Type=DFM17 ser=[BC]22055258 Details on http://radiosondy.info
W4DEX-14D220552582023-03-29 11:48:4435.8974-79.16918719112443Clb=3.0m/s Type=DFM17 ser=[BC]22055258 Details on http://radiosondy.info
W4TBD-12D220552582023-03-29 11:48:3635.8974-79.17268617612420Clb=3.3m/s t=-55.5C h=-1.0% p=-1.0hPa 403.401 MHz Type=DFM17 ser=22055258 Radiosonde
W4DEX-14D220552582023-03-29 11:48:2035.8972-79.1789118912373Clb=5.1m/s Type=DFM17 ser=[BC]22055258 Details on http://radiosondy.info
W4DEX-14D220552582023-03-29 11:47:5135.897-79.18668919112303Clb=5.7m/s Type=DFM17 ser=[BC]22055258 Details on http://radiosondy.info
W4TBD-12D220552582023-03-29 11:47:3835.8969-79.19079020612275Clb=4.5m/s t=-54.3C h=-1.0% p=-1.0hPa 403.401 MHz Type=DFM17 ser=22055258 Radiosonde
W4DEX-14D220552582023-03-29 11:47:2135.8968-79.19548818912233Clb=5.3m/s Type=DFM17 ser=[BC]22055258 Details on http://radiosondy.info
W4DEX-14D220552582023-03-29 11:46:5335.8968-79.20419919112151Clb=2.1m/s Type=DFM17 ser=[BC]22055258 Details on http://radiosondy.info
W4TBD-12D220552582023-03-29 11:46:4135.8972-79.20999519612106Clb=5.8m/s t=-56.1C h=-1.0% p=-1.0hPa 403.401 MHz Type=DFM17 ser=22055258 Radiosonde
W4DEX-14D220552582023-03-29 11:46:2835.8974-79.212810019312076Clb=3.9m/s Type=DFM17 ser=[BC]22055258 Details on http://radiosondy.info
W4DEX-14D220552582023-03-29 11:46:0335.8984-79.221710019312003Clb=6.6m/s Type=DFM17 ser=[BC]22055258 Details on http://radiosondy.info
W4TBD-12D220552582023-03-29 11:45:5135.8989-79.22759920611955Clb=6.0m/s t=-56.8C h=-1.0% p=-1.0hPa 403.401 MHz Type=DFM17 ser=22055258 Radiosonde
W4DEX-14D220552582023-03-29 11:45:4035.8991-79.23049318711924Clb=5.5m/s Type=DFM17 ser=[BC]22055258 Details on http://radiosondy.info
W4DEX-14D220552582023-03-29 11:45:1735.8999-79.23899818311851Clb=5.6m/s Type=DFM17 ser=[BC]22055258 Details on http://radiosondy.info
W4TBD-12D220552582023-03-29 11:45:0035.9005-79.2459718511802Clb=6.8m/s t=-56.2C h=-1.0% p=-1.0hPa 403.401 MHz Type=DFM17 ser=22055258 Radiosonde
W4DEX-14D220552582023-03-29 11:44:4935.9007-79.24739718111777Clb=4.9m/s Type=DFM17 ser=[BC]22055258 Details on http://radiosondy.info
W4DEX-14D220552582023-03-29 11:44:1835.9016-79.255610518911704Clb=4.9m/s Type=DFM17 ser=[BC]22055258 Details on http://radiosondy.info
W4TBD-12D220552582023-03-29 11:44:0235.9026-79.262510118111652Clb=6.1m/s t=-56.1C h=-1.0% p=-1.0hPa 403.401 MHz Type=DFM17 ser=22055258 Radiosonde
W4DEX-14D220552582023-03-29 11:43:5735.9028-79.264210219811631Clb=5.1m/s Type=DFM17 ser=[BC]22055258 Details on http://radiosondy.info
W4DEX-14D220552582023-03-29 11:43:4335.9043-79.27319820211556Clb=3.3m/s Type=DFM17 ser=[BC]22055258 Details on http://radiosondy.info
W4DEX-14D220552582023-03-29 11:43:3535.9058-79.282210220211487Clb=5.7m/s Type=DFM17 ser=[BC]22055258 Details on http://radiosondy.info
W4DEX-14D220552582023-03-29 11:43:1735.9069-79.29149919811417Clb=6.0m/s Type=DFM17 ser=[BC]22055258 Details on http://radiosondy.info
W4DEX-14D220552582023-03-29 11:42:5735.9079-79.30059919411353Clb=5.5m/s Type=DFM17 ser=[BC]22055258 Details on http://radiosondy.info
W4DEX-14D220552582023-03-29 11:42:4535.909-79.309310419811296Clb=2.5m/s Type=DFM17 ser=[BC]22055258 Details on http://radiosondy.info
W4DEX-14D220552582023-03-29 11:42:3535.9105-79.318110119611229Clb=5.5m/s Type=DFM17 ser=[BC]22055258 Details on http://radiosondy.info
W4DEX-14D220552582023-03-29 11:42:1735.912-79.32710020011168Clb=1.2m/s Type=DFM17 ser=[BC]22055258 Details on http://radiosondy.info
W4DEX-14D220552582023-03-29 11:41:5735.9134-79.3369820211108Clb=2.9m/s Type=DFM17 ser=[BC]22055258 Details on http://radiosondy.info
W4DEX-14D220552582023-03-29 11:41:4435.9148-79.34539820011050Clb=3.9m/s Type=DFM17 ser=[BC]22055258 Details on http://radiosondy.info
W4DEX-14D220552582023-03-29 11:41:4235.9161-79.354210219610983Clb=3.4m/s Type=DFM17 ser=[BC]22055258 Details on http://radiosondy.info
W4DEX-14D220552582023-03-29 11:41:4135.9176-79.36319718910910Clb=4.9m/s Type=DFM17 ser=[BC]22055258 Details on http://radiosondy.info
W4DEX-14D220552582023-03-29 11:41:4035.9191-79.371610019110848Clb=2.6m/s Type=DFM17 ser=[BC]22055258 Details on http://radiosondy.info
W4DEX-14D220552582023-03-29 11:41:3935.9206-79.380210819310790Clb=3.7m/s Type=DFM17 ser=[BC]22055258 Details on http://radiosondy.info
W4DEX-14D220552582023-03-29 11:41:3135.9222-79.388910619610728Clb=4.8m/s Type=DFM17 ser=[BC]22055258 Details on http://radiosondy.info
W4DEX-14D220552582023-03-29 11:41:1635.9239-79.397610019810666Clb=3.8m/s Type=DFM17 ser=[BC]22055258 Details on http://radiosondy.info
W4DEX-14D220552582023-03-29 11:41:0135.9254-79.406510119610604Clb=6.8m/s Type=DFM17 ser=[BC]22055258 Details on http://radiosondy.info
W4DEX-14D220552582023-03-29 11:40:5735.9268-79.415410719610534Clb=3.6m/s Type=DFM17 ser=[BC]22055258 Details on http://radiosondy.info
W4DEX-14D220552582023-03-29 11:40:5435.9281-79.42439719110464Clb=4.3m/s Type=DFM17 ser=[BC]22055258 Details on http://radiosondy.info
W4DEX-14D220552582023-03-29 11:40:5135.9293-79.4339619310399Clb=4.5m/s Type=DFM17 ser=[BC]22055258 Details on http://radiosondy.info
W4DEX-14D220552582023-03-29 11:40:4435.9305-79.44179918910325Clb=5.7m/s Type=DFM17 ser=[BC]22055258 Details on http://radiosondy.info
W4DEX-14D220552582023-03-29 11:40:2735.9316-79.450310118510254Clb=2.8m/s Type=DFM17 ser=[BC]22055258 Details on http://radiosondy.info
W4DEX-14D220552582023-03-29 11:40:0535.9328-79.458610318010188Clb=5.0m/s Type=DFM17 ser=[BC]22055258 Details on http://radiosondy.info
W4DEX-14D220552582023-03-29 11:39:4035.9338-79.466810318010118Clb=5.2m/s Type=DFM17 ser=[BC]22055258 Details on http://radiosondy.info
W4DEX-14D220552582023-03-29 11:39:1435.9348-79.475110318710049Clb=4.7m/s Type=DFM17 ser=[BC]22055258 Details on http://radiosondy.info
W4DEX-14D220552582023-03-29 11:38:4935.936-79.4835991809969Clb=7.0m/s Type=DFM17 ser=[BC]22055258 Details on http://radiosondy.info
W4DEX-14D220552582023-03-29 11:38:2635.9373-79.49161021789887Clb=5.7m/s Type=DFM17 ser=[BC]22055258 Details on http://radiosondy.info
W4DEX-14D220552582023-03-29 11:38:0035.9388-79.4996991809803Clb=5.5m/s Type=DFM17 ser=[BC]22055258 Details on http://radiosondy.info
W4DEX-14D220552582023-03-29 11:37:3535.9401-79.50771031789727Clb=3.1m/s Type=DFM17 ser=[BC]22055258 Details on http://radiosondy.info
W4DEX-14D220552582023-03-29 11:37:0635.9413-79.51581051809657Clb=5.0m/s Type=DFM17 ser=[BC]22055258 Details on http://radiosondy.info
W4DEX-14D220552582023-03-29 11:36:4035.9426-79.5241041819590Clb=3.7m/s Type=DFM17 ser=[BC]22055258 Details on http://radiosondy.info
W4DEX-14D220552582023-03-29 11:36:1635.9439-79.53211031789516Clb=5.5m/s Type=DFM17 ser=[BC]22055258 Details on http://radiosondy.info
W4DEX-14D220552582023-03-29 11:35:5735.945-79.54021001809442Clb=7.0m/s Type=DFM17 ser=[BC]22055258 Details on http://radiosondy.info
W4DEX-14D220552582023-03-29 11:35:4835.9461-79.54831031789363Clb=4.9m/s Type=DFM17 ser=[BC]22055258 Details on http://radiosondy.info
W4DEX-14D220552582023-03-29 11:35:4635.9471-79.55651001809290Clb=3.4m/s Type=DFM17 ser=[BC]22055258 Details on http://radiosondy.info
W4DEX-14D220552582023-03-29 11:35:4535.9479-79.5647971729217Clb=8.4m/s Type=DFM17 ser=[BC]22055258 Details on http://radiosondy.info
W4DEX-14D220552582023-03-29 11:35:4435.9486-79.5724991749121Clb=7.8m/s Type=DFM17 ser=[BC]22055258 Details on http://radiosondy.info
W4DEX-14D220552582023-03-29 11:35:4335.9496-79.5804981749035Clb=5.1m/s Type=DFM17 ser=[BC]22055258 Details on http://radiosondy.info
W4DEX-14D220552582023-03-29 11:35:4135.9509-79.58821061728953Clb=6.4m/s Type=DFM17 ser=[BC]22055258 Details on http://radiosondy.info
W4DEX-14D220552582023-03-29 11:35:3035.9523-79.59591041728884Clb=6.3m/s Type=DFM17 ser=[BC]22055258 Details on http://radiosondy.info
W4DEX-14D220552582023-03-29 11:35:0335.9536-79.60381041768808Clb=3.9m/s Type=DFM17 ser=[BC]22055258 Details on http://radiosondy.info
W4DEX-14D220552582023-03-29 11:34:4035.9549-79.6116931678731Clb=5.8m/s Type=DFM17 ser=[BC]22055258 Details on http://radiosondy.info
W4DEX-14D220552582023-03-29 11:34:1635.9559-79.61931071658660Clb=2.8m/s Type=DFM17 ser=[BC]22055258 Details on http://radiosondy.info
W4DEX-14D220552582023-03-29 11:33:5435.957-79.62671051618580Clb=4.3m/s Type=DFM17 ser=[BC]22055258 Details on http://radiosondy.info
W4DEX-14D220552582023-03-29 11:33:3435.9579-79.6341001598509Clb=5.1m/s Type=DFM17 ser=[BC]22055258 Details on http://radiosondy.info
W4DEX-14D220552582023-03-29 11:33:0735.9588-79.64131061578436Clb=4.9m/s Type=DFM17 ser=[BC]22055258 Details on http://radiosondy.info
W4DEX-14D220552582023-03-29 11:32:4335.9594-79.64851051578348Clb=5.7m/s Type=DFM17 ser=[BC]22055258 Details on http://radiosondy.info
W4DEX-14D220552582023-03-29 11:32:2035.9604-79.6556941378252Clb=5.7m/s Type=DFM17 ser=[BC]22055258 Details on http://radiosondy.info
W4DEX-14D220552582023-03-29 11:31:5735.9611-79.66191051418178Clb=4.7m/s Type=DFM17 ser=[BC]22055258 Details on http://radiosondy.info
W4DEX-14D220552582023-03-29 11:31:4235.962-79.6682981418101Clb=4.2m/s Type=DFM17 ser=[BC]22055258 Details on http://radiosondy.info
W4DEX-14D220552582023-03-29 11:31:2735.963-79.6746971438021Clb=3.9m/s Type=DFM17 ser=[BC]22055258 Details on http://radiosondy.info
W4DEX-14D220552582023-03-29 11:31:1435.9641-79.6811001377935Clb=4.6m/s Type=DFM17 ser=[BC]22055258 Details on http://radiosondy.info
W4DEX-14D220552582023-03-29 11:31:0335.9653-79.68721021437849Clb=5.9m/s Type=DFM17 ser=[BC]22055258 Details on http://radiosondy.info
W4DEX-14D220552582023-03-29 11:31:0135.9667-79.69351171467775Clb=5.2m/s Type=DFM17 ser=[BC]22055258 Details on http://radiosondy.info
W4DEX-14D220552582023-03-29 11:31:0035.9683-79.69991071447684Clb=5.9m/s Type=DFM17 ser=[BC]22055258 Details on http://radiosondy.info
W4DEX-14D220552582023-03-29 11:30:5935.9699-79.70631071447601Clb=4.0m/s Type=DFM17 ser=[BC]22055258 Details on http://radiosondy.info
W4DEX-14D220552582023-03-29 11:30:5735.9712-79.71281131447520Clb=4.4m/s Type=DFM17 ser=[BC]22055258 Details on http://radiosondy.info
W4DEX-14D220552582023-03-29 11:30:4435.9728-79.71911041547436Clb=5.3m/s Type=DFM17 ser=[BC]22055258 Details on http://radiosondy.info
W4DEX-14D220552582023-03-29 11:30:2235.9747-79.72571101487350Clb=6.0m/s Type=DFM17 ser=[BC]22055258 Details on http://radiosondy.info
W4DEX-14D220552582023-03-29 11:29:5635.9765-79.73221151437260Clb=5.9m/s Type=DFM17 ser=[BC]22055258 Details on http://radiosondy.info
W4DEX-14D220552582023-03-29 11:29:3135.9779-79.73861011487168Clb=6.4m/s Type=DFM17 ser=[BC]22055258 Details on http://radiosondy.info
W4DEX-14D220552582023-03-29 11:29:0735.9795-79.74511101467081Clb=5.0m/s Type=DFM17 ser=[BC]22055258 Details on http://radiosondy.info
W4DEX-14D220552582023-03-29 11:28:4235.9812-79.75151081546995Clb=10.8m/s Type=DFM17 ser=[BC]22055258 Details on http://radiosondy.info
W4DEX-14D220552582023-03-29 11:28:2135.9829-79.75831021526886Clb=7.0m/s Type=DFM17 ser=[BC]22055258 Details on http://radiosondy.info
W4DEX-14D220552582023-03-29 11:27:5735.9843-79.7651041466795Clb=8.5m/s Type=DFM17 ser=[BC]22055258 Details on http://radiosondy.info
W4DEX-14D220552582023-03-29 11:27:4235.9855-79.77161051466705Clb=6.6m/s Type=DFM17 ser=[BC]22055258 Details on http://radiosondy.info
W4DEX-14D220552582023-03-29 11:27:2735.9869-79.77811051376606Clb=3.8m/s Type=DFM17 ser=[BC]22055258 Details on http://radiosondy.info
W4DEX-14D220552582023-03-29 11:27:1235.9881-79.78421001306521Clb=3.8m/s Type=DFM17 ser=[BC]22055258 Details on http://radiosondy.info
W4DEX-14D220552582023-03-29 11:26:5735.989-79.79011071306436Clb=7.2m/s Type=DFM17 ser=[BC]22055258 Details on http://radiosondy.info
W4DEX-14D220552582023-03-29 11:26:4235.9901-79.79591021266354Clb=7.5m/s Type=DFM17 ser=[BC]22055258 Details on http://radiosondy.info
W4DEX-14D220552582023-03-29 11:26:2735.9914-79.80141011316265Clb=3.1m/s Type=DFM17 ser=[BC]22055258 Details on http://radiosondy.info
W4DEX-14D220552582023-03-29 11:26:1235.9932-79.8071091206183Clb=9.0m/s Type=DFM17 ser=[BC]22055258 Details on http://radiosondy.info
W4DEX-14D220552582023-03-29 11:26:0035.9948-79.81211101246078Clb=5.0m/s Type=DFM17 ser=[BC]22055258 Details on http://radiosondy.info
W4DEX-14D220552582023-03-29 11:25:5935.9962-79.81771041225980Clb=7.2m/s Type=DFM17 ser=[BC]22055258 Details on http://radiosondy.info
W4DEX-14D220552582023-03-29 11:25:5635.9974-79.8231161095886Clb=5.9m/s Type=DFM17 ser=[BC]22055258 Details on http://radiosondy.info
W4DEX-14D220552582023-03-29 11:25:4335.9985-79.82791171135812Clb=3.4m/s Type=DFM17 ser=[BC]22055258 Details on http://radiosondy.info
W4DEX-14D220552582023-03-29 11:25:2435.9999-79.83281121175719Clb=4.5m/s Type=DFM17 ser=[BC]22055258 Details on http://radiosondy.info
W4DEX-14D220552582023-03-29 11:25:0536.0012-79.83791171075638Clb=8.2m/s Type=DFM17 ser=[BC]22055258 Details on http://radiosondy.info
W4DEX-14D220552582023-03-29 11:24:4536.0024-79.84261081045556Clb=8.0m/s Type=DFM17 ser=[BC]22055258 Details on http://radiosondy.info
W4DEX-14D220552582023-03-29 11:24:1836.0037-79.84711081075476Clb=6.9m/s Type=DFM17 ser=[BC]22055258 Details on http://radiosondy.info
W4DEX-14D220552582023-03-29 11:23:5736.0051-79.85161121045378Clb=6.3m/s Type=DFM17 ser=[BC]22055258 Details on http://radiosondy.info
W4DEX-14D220552582023-03-29 11:23:4236.0066-79.8561106985300Clb=4.1m/s Type=DFM17 ser=[BC]22055258 Details on http://radiosondy.info
W4DEX-14D220552582023-03-29 11:23:2736.0083-79.86011191045216Clb=8.2m/s Type=DFM17 ser=[BC]22055258 Details on http://radiosondy.info
W4DEX-14D220552582023-03-29 11:23:1336.01-79.86431171045140Clb=5.6m/s Type=DFM17 ser=[BC]22055258 Details on http://radiosondy.info
W4DEX-14D220552582023-03-29 11:22:5736.0115-79.8687116965056Clb=3.7m/s Type=DFM17 ser=[BC]22055258 Details on http://radiosondy.info
W4DEX-14D220552582023-03-29 11:22:4236.0132-79.8726124964968Clb=4.9m/s Type=DFM17 ser=[BC]22055258 Details on http://radiosondy.info
W4DEX-14D220552582023-03-29 11:22:2736.0147-79.87661141044887Clb=5.6m/s Type=DFM17 ser=[BC]22055258 Details on http://radiosondy.info
W4DEX-14D220552582023-03-29 11:22:1236.0167-79.8807124964809Clb=5.7m/s Type=DFM17 ser=[BC]22055258 Details on http://radiosondy.info
W4DEX-14D220552582023-03-29 11:21:5736.0184-79.8845112964730Clb=5.4m/s Type=DFM17 ser=[BC]22055258 Details on http://radiosondy.info
W4DEX-14D220552582023-03-29 11:21:4236.0202-79.8884130874651Clb=6.7m/s Type=DFM17 ser=[BC]22055258 Details on http://radiosondy.info
W4DEX-14D220552582023-03-29 11:21:2736.0218-79.8917130854550Clb=6.5m/s Type=DFM17 ser=[BC]22055258 Details on http://radiosondy.info
W4DEX-14D220552582023-03-29 11:21:1936.0234-79.8951118894469Clb=4.1m/s Type=DFM17 ser=[BC]22055258 Details on http://radiosondy.info
W4DEX-14D220552582023-03-29 11:21:0836.0252-79.8986121894381Clb=4.4m/s Type=DFM17 ser=[BC]22055258 Details on http://radiosondy.info
W4DEX-14D220552582023-03-29 11:20:5236.0271-79.9019136814299Clb=4.8m/s Type=DFM17 ser=[BC]22055258 Details on http://radiosondy.info
W4DEX-14D220552582023-03-29 11:20:3336.0289-79.9048119804208Clb=6.5m/s Type=DFM17 ser=[BC]22055258 Details on http://radiosondy.info
W4DEX-14D220552582023-03-29 11:20:1536.0305-79.9078113784119Clb=5.4m/s Type=DFM17 ser=[BC]22055258 Details on http://radiosondy.info
W4DEX-14D220552582023-03-29 11:19:5736.0322-79.9107125804040Clb=6.8m/s Type=DFM17 ser=[BC]22055258 Details on http://radiosondy.info
W4DEX-14D220552582023-03-29 11:19:4236.0338-79.9138115763955Clb=5.2m/s Type=DFM17 ser=[BC]22055258 Details on http://radiosondy.info
W4DEX-14D220552582023-03-29 11:19:2736.0353-79.9168126653874Clb=7.2m/s Type=DFM17 ser=[BC]22055258 Details on http://radiosondy.info
W4DEX-14D220552582023-03-29 11:19:1236.0366-79.9193126693797Clb=3.2m/s Type=DFM17 ser=[BC]22055258 Details on http://radiosondy.info
W4DEX-14D220552582023-03-29 11:18:5736.038-79.9219118613714Clb=8.2m/s Type=DFM17 ser=[BC]22055258 Details on http://radiosondy.info
W4DEX-14D220552582023-03-29 11:18:4236.039-79.9243133653625Clb=4.1m/s Type=DFM17 ser=[BC]22055258 Details on http://radiosondy.info
W4DEX-14D220552582023-03-29 11:18:2736.0401-79.9269114703545Clb=4.2m/s Type=DFM17 ser=[BC]22055258 Details on http://radiosondy.info
W4DEX-14D220552582023-03-29 11:18:1236.0412-79.9298133693460Clb=4.3m/s Type=DFM17 ser=[BC]22055258 Details on http://radiosondy.info
W4DEX-14D220552582023-03-29 11:17:5736.0424-79.9325120693388Clb=3.2m/s Type=DFM17 ser=[BC]22055258 Details on http://radiosondy.info
W4DEX-14D220552582023-03-29 11:17:4236.0441-79.9349127693318Clb=6.4m/s Type=DFM17 ser=[BC]22055258 Details on http://radiosondy.info
W4DEX-14D220552582023-03-29 11:17:2736.0455-79.9374136613237Clb=5.1m/s Type=DFM17 ser=[BC]22055258 Details on http://radiosondy.info
W4DEX-14D220552582023-03-29 11:17:1236.0467-79.9397127633150Clb=7.7m/s Type=DFM17 ser=[BC]22055258 Details on http://radiosondy.info
W4DEX-14D220552582023-03-29 11:16:5936.0482-79.9419124633080Clb=7.8m/s Type=DFM17 ser=[BC]22055258 Details on http://radiosondy.info
W4DEX-14D220552582023-03-29 11:16:4436.0499-79.944152542996Clb=5.6m/s Type=DFM17 ser=[BC]22055258 Details on http://radiosondy.info
W4DEX-14D220552582023-03-29 11:16:2836.0513-79.9455130542925Clb=5.6m/s Type=DFM17 ser=[BC]22055258 Details on http://radiosondy.info
W4DEX-14D220552582023-03-29 11:16:1236.0528-79.9472137502848Clb=4.6m/s Type=DFM17 ser=[BC]22055258 Details on http://radiosondy.info
W4DEX-14D220552582023-03-29 11:15:5736.0543-79.9486152462760Clb=8.5m/s Type=DFM17 ser=[BC]22055258 Details on http://radiosondy.info
W4DEX-14D220552582023-03-29 11:15:4236.0556-79.9498160432669Clb=5.2m/s Type=DFM17 ser=[BC]22055258 Details on http://radiosondy.info
W4DEX-14D220552582023-03-29 11:15:2736.0568-79.9511130442590Clb=4.9m/s Type=DFM17 ser=[BC]22055258 Details on http://radiosondy.info
W4DEX-14D220552582023-03-29 11:15:1236.0581-79.9524155522510Clb=5.8m/s Type=DFM17 ser=[BC]22055258 Details on http://radiosondy.info
W4DEX-14D220552582023-03-29 11:14:5736.0596-79.9538128432428Clb=4.6m/s Type=DFM17 ser=[BC]22055258 Details on http://radiosondy.info
W4DEX-14D220552582023-03-29 11:14:4236.0611-79.9545167442344Clb=6.4m/s Type=DFM17 ser=[BC]22055258 Details on http://radiosondy.info
W4DEX-14D220552582023-03-29 11:14:2736.0625-79.9556144412264Clb=4.8m/s Type=DFM17 ser=[BC]22055258 Details on http://radiosondy.info
W4DEX-14D220552582023-03-29 11:14:1236.0637-79.9566121412183Clb=4.6m/s Type=DFM17 ser=[BC]22055258 Details on http://radiosondy.info
W4DEX-14D220552582023-03-29 11:13:5736.0647-79.9579131442105Clb=4.0m/s Type=DFM17 ser=[BC]22055258 Details on http://radiosondy.info
W4DEX-14D220552582023-03-29 11:13:4236.066-79.959156502023Clb=8.0m/s Type=DFM17 ser=[BC]22055258 Details on http://radiosondy.info
W4DEX-14D220552582023-03-29 11:13:2736.0676-79.9601149481939Clb=5.8m/s Type=DFM17 ser=[BC]22055258 Details on http://radiosondy.info
W4DEX-14D220552582023-03-29 11:13:1236.0692-79.961191501855Clb=4.4m/s Type=DFM17 ser=[BC]22055258 Details on http://radiosondy.info
W4DEX-14D220552582023-03-29 11:13:0036.071-79.9611204561765Clb=4.4m/s Type=DFM17 ser=[BC]22055258 Details on http://radiosondy.info
W4DEX-14D220552582023-03-29 11:12:4336.0731-79.9607208571669Clb=5.5m/s Type=DFM17 ser=[BC]22055258 Details on http://radiosondy.info
W4DEX-14D220552582023-03-29 11:12:2836.0751-79.9598214501595Clb=5.5m/s Type=DFM17 ser=[BC]22055258 Details on http://radiosondy.info
W4DEX-14D220552582023-03-29 11:12:1236.0767-79.959182571515Clb=5.8m/s Type=DFM17 ser=[BC]22055258 Details on http://radiosondy.info
W4DEX-14D220552582023-03-29 11:11:5736.0787-79.9581205571426Clb=6.7m/s Type=DFM17 ser=[BC]22055258 Details on http://radiosondy.info
W4DEX-14D220552582023-03-29 11:11:4236.0806-79.957221521327Clb=5.5m/s Type=DFM17 ser=[BC]22055258 Details on http://radiosondy.info
W4DEX-14D220552582023-03-29 11:11:2736.0824-79.9561200561245Clb=5.2m/s Type=DFM17 ser=[BC]22055258 Details on http://radiosondy.info
W4DEX-14D220552582023-03-29 11:11:1236.0842-79.955213561173Clb=6.1m/s Type=DFM17 ser=[BC]22055258 Details on http://radiosondy.info
W4DEX-14D220552582023-03-29 11:10:5736.086-79.9539193501083Clb=5.6m/s Type=DFM17 ser=[BC]22055258 Details on http://radiosondy.info
W4DEX-14D220552582023-03-29 11:10:4236.0877-79.9529221561004Clb=5.3m/s Type=DFM17 ser=[BC]22055258 Details on http://radiosondy.info
W4DEX-14D220552582023-03-29 11:10:2736.0895-79.951621352924Clb=7.1m/s Type=DFM Details on http://radiosondy.info
W4DEX-14D220552582023-03-29 11:10:1236.0911-79.950423048838Clb=5.9m/s Type=DFM Details on http://radiosondy.info
W4DEX-14D220552582023-03-29 11:09:5736.0924-79.948922846751Clb=7.3m/s Type=DFM Details on http://radiosondy.info